« Back
NWS Peachtree City, Ga » Text Product » AHN Terminal Aerodrome Forecast


Printer-friendly Version
Current Version              Previous Versions:   1  2  3  4  5  6  7  8  9  

Terminal Aerodrome Forecast

156
FTUS42 KFFC 260533
TAFAHN
TAF
KAHN 260533Z 2606/2706 VRB03KT P6SM VCSH BKN015
     FM260800 VRB03KT 3SM BR BKN007
     FM261500 13004KT 6SM BR OVC015
     FM261700 16007KT P6SM -SHRA OVC025
      TEMPO 2620/2624 3SM TSRA BR OVC015CB
     FM270000 15006KT P6SM SCT030 BKN045=

USA.gov is the U.S. government's official web portal to all federal, state and local government web resources and services.